Latest Weather Observations for Kingaroy

IDQ60801

Issued at 12:02 pm EST Monday 5 December 2016 (issued every 30 minutes, with the page automatically refreshed every 10 minutes)

About weather observations | Map of weather stations | Latest weather observations for QLD | Other Formats
Station Details ID: 040922 Name: KINGAROY AIRPORT Lat: -26.57 Lon: 151.84 Height: 433.67 m
Data from the previous 72 hours. | See also: Recent months at Kingaroy
Date/Time
EST
Temp
°C
App
Temp
°C
Dew
Point
°C
Rel
Hum
%
Delta-T
°C
Wind Press
QNH
hPa
Press
MSL
hPa
Rain since
9am
mm
Dir  Spd
km/h
Gust
km/h
Spd
kts
Gust
kts
05/12:00pm 33.0 31.5 16.8 38 10.4 N 20 30 11 16 1015.1 1012.8 0.0
05/11:30am 32.6 31.5 17.2 39 10.0 N 19 30 10 16 1015.8 1013.5 0.0
05/11:00am 30.5 28.9 16.5 43 8.9 N 20 30 11 16 1016.5 1014.1 0.0
05/10:30am 30.7 29.5 17.4 45 8.6 NNW 20 35 11 19 1016.6 1014.2 0.0
05/10:00am 29.2 27.2 16.4 46 8.1 N 22 33 12 18 1016.9 1014.6 0.0
05/09:30am 28.6 27.3 17.2 50 7.3 N 20 35 11 19 1016.9 1014.6 0.0
05/09:00am 27.9 26.2 17.1 51 6.9 N 22 33 12 18 1017.3 1015.0 0.0
05/08:30am 26.8 25.1 17.3 56 6.1 NNW 22 30 12 16 1017.6 1015.3 0.0
05/08:00am 25.4 23.3 16.3 57 5.7 N 22 30 12 16 1017.7 1015.4 0.0
05/07:30am 24.4 23.6 17.1 63 4.6 N 17 28 9 15 1017.7 1015.4 0.0
05/07:00am 23.4 23.0 18.1 72 3.4 N 17 24 9 13 1017.8 1015.5 0.0
05/06:30am 22.2 22.7 18.4 79 2.4 N 13 20 7 11 1017.6 1015.3 0.0
05/06:00am 21.2 22.7 18.8 86 1.5 N 9 13 5 7 1017.5 1015.2 0.0
05/05:30am 20.6 22.1 18.9 90 1.1 N 9 11 5 6 1017.3 1015.0 0.0
05/05:00am 20.5 22.0 18.8 90 1.1 NNE 9 13 5 7 1016.9 1014.6 0.0
05/04:47am 20.6 22.4 18.7 89 1.2 NNE 7 11 4 6 1016.8 1014.5 0.0
05/04:30am 20.7 22.1 18.6 88 1.3 NNE 9 15 5 8 1016.6 1014.2 0.0
05/04:00am 21.1 21.8 18.9 87 1.4 N 13 19 7 10 1016.7 1014.3 0.0
05/03:30am 21.1 22.2 18.9 87 1.4 NNE 11 13 6 7 1016.1 1013.8 0.0
05/03:00am 21.3 23.3 19.2 88 1.4 NNE 7 13 4 7 1016.4 1014.0 0.0
05/02:30am 21.1 23.1 19.2 89 1.2 N 7 9 4 5 1016.1 1013.8 0.0
05/02:00am 21.1 22.6 19.0 88 1.3 NNE 9 13 5 7 1016.2 1013.9 0.0
05/01:44am 21.3 23.3 19.2 88 1.4 NE 7 11 4 6 1016.0 1013.7 0.0
05/01:30am 21.4 23.0 19.1 87 1.5 NNE 9 15 5 8 1016.4 1014.0 0.0
05/01:00am 21.7 23.4 19.3 86 1.5 NNE 9 13 5 7 1016.7 1014.3 0.0
05/12:30am 21.9 23.7 19.5 86 1.6 NNE 9 15 5 8 1016.8 1014.5 0.0
05/12:17am 22.1 23.5 19.6 86 1.6 N 11 17 6 9 1016.8 1014.5 0.0
05/12:00am 22.3 24.2 19.7 85 1.7 NNE 9 13 5 7 1017.0 1014.7 0.0
 
Date/Time
EST
Temp
°C
App
Temp
°C
Dew
Point
°C
Rel
Hum
%
Delta-T
°C
Wind Press
QNH
hPa
Press
MSL
hPa
Rain since
9am
mm
Dir  Spd
km/h
Gust
km/h
Spd
kts
Gust
kts
04/11:30pm 22.6 24.2 19.9 85 1.8 NNE 11 17 6 9 1016.8 1014.5 0.0
04/11:04pm 23.0 25.0 20.0 83 2.0 NE 9 19 5 10 1016.7 1014.3 0.0
04/11:00pm 23.0 25.0 20.0 83 2.0 NE 9 19 5 10 1016.6 1014.2 0.0
04/10:30pm 23.5 24.0 20.0 81 2.3 NNE 17 24 9 13 1016.5 1014.1 0.0
04/10:00pm 24.0 24.4 19.9 78 2.7 NNE 17 28 9 15 1016.2 1013.9 0.0
04/09:30pm 24.7 25.2 20.0 75 3.1 NNE 17 28 9 15 1016.4 1014.0 0.0
04/09:00pm 25.3 26.6 20.1 73 3.4 NNE 13 17 7 9 1016.1 1013.8 0.0
04/08:30pm 25.9 27.4 19.8 69 4.0 NNE 11 17 6 9 1016.0 1013.7 0.0
04/08:00pm 26.7 27.5 19.8 66 4.6 NE 15 28 8 15 1015.2 1012.9 0.0
04/07:30pm 27.7 29.3 20.0 63 5.1 NE 11 20 6 11 1014.7 1012.4 0.0
04/07:00pm 28.9 29.0 19.2 55 6.4 NNE 17 26 9 14 1013.7 1011.4 0.0
04/06:30pm 29.7 30.4 18.8 52 7.2 NE 13 20 7 11 1013.6 1011.3 0.0
04/06:00pm 30.6 31.2 18.7 49 7.8 NE 13 20 7 11 1013.5 1011.2 0.0
04/05:30pm 31.4 31.5 18.4 46 8.5 NE 15 28 8 15 1012.9 1010.6 0.0
04/05:00pm 32.8 32.3 17.8 40 9.8 ENE 17 30 9 16 1012.7 1010.4 0.0
04/04:30pm 34.3 33.3 16.6 34 11.4 NNE 17 26 9 14 1012.6 1010.3 0.0
04/04:00pm 34.8 34.4 16.1 32 12.0 NNE 13 24 7 13 1012.7 1010.4 0.0
04/03:30pm 35.0 33.3 15.8 31 12.3 N 19 33 10 18 1012.8 1010.5 0.0
04/03:00pm 34.6 33.5 16.4 33 11.7 N 17 28 9 15 1013.0 1010.7 0.0
04/02:30pm 34.5 33.4 16.4 34 11.7 N 17 28 9 15 1013.5 1011.2 0.0
04/02:00pm 35.2 34.7 17.0 34 11.9 N 15 26 8 14 1013.8 1011.5 0.0
04/01:30pm 34.3 34.3 17.1 36 11.2 NE 13 22 7 12 1014.3 1011.9 0.0
04/01:00pm 33.7 32.5 17.0 37 10.8 N 19 26 10 14 1014.7 1012.4 0.0
04/12:30pm 32.9 31.9 16.7 38 10.4 N 17 24 9 13 1015.2 1012.9 0.0
04/12:00pm 31.8 30.6 16.1 38 10.0 N 17 24 9 13 1015.7 1013.4 0.0
04/11:30am 31.6 30.0 17.5 43 9.1 NNW 22 32 12 17 1016.1 1013.8 0.0
04/11:00am 31.1 30.6 17.0 42 9.1 N 15 22 8 12 1016.6 1014.2 0.0
04/10:30am 30.1 28.8 16.9 45 8.4 N 19 28 10 15 1016.8 1014.5 0.0
04/10:00am 28.9 28.2 17.4 49 7.4 N 17 24 9 13 1017.3 1015.0 0.0
04/09:30am 28.2 28.3 18.3 55 6.4 N 15 22 8 12 1017.3 1015.0 0.0
04/09:00am 27.1 26.1 17.6 56 6.1 N 19 24 10 13 1017.4 1015.1 9.0
04/08:30am 26.5 26.0 17.0 56 6.0 NW 15 20 8 11 1017.6 1015.3 9.0
04/08:00am 25.4 26.2 17.3 61 5.1 WNW 9 15 5 8 1017.6 1015.3 9.0
04/07:30am 23.4 24.5 16.7 66 4.2 N 6 9 3 5 1017.7 1015.4 8.8
04/07:00am 22.1 24.6 17.2 74 3.1 CALM 0 0 0 0 1017.3 1015.0 8.8
04/06:30am 20.4 22.8 17.0 81 2.1 CALM 0 0 0 0 1017.1 1014.8 8.8
04/06:00am 18.8 20.9 16.2 85 1.6 CALM 0 0 0 0 1017.0 1014.7 8.8
04/05:30am 17.5 19.6 16.2 92 0.8 CALM 0 0 0 0 1016.7 1014.3 8.8
04/05:00am 16.6 17.1 15.6 94 0.6 S 7 9 4 5 1016.6 1014.2 8.8
04/04:30am 16.6 18.4 15.5 93 0.7 CALM 0 0 0 0 1016.6 1014.2 8.8
04/04:00am 16.7 17.1 15.4 92 0.8 SSW 7 7 4 4 1016.7 1014.3 8.8
04/03:30am 17.1 17.3 15.8 92 0.8 S 9 11 5 6 1016.6 1014.2 8.8
04/03:00am 17.4 18.1 16.1 92 0.8 S 7 11 4 6 1016.6 1014.2 8.8
04/02:30am 18.2 20.5 16.7 91 0.9 CALM 0 0 0 0 1016.5 1014.1 8.8
04/02:00am 18.4 19.5 16.6 89 1.1 S 6 7 3 4 1016.5 1014.1 8.8
04/01:30am 18.6 20.8 16.4 87 1.3 CALM 0 0 0 0 1016.7 1014.3 8.8
04/01:00am 19.3 20.4 16.5 84 1.7 NE 6 9 3 5 1017.2 1014.9 8.8
04/12:30am 19.2 20.7 16.6 85 1.6 SW 4 9 2 5 1017.3 1015.0 8.8
04/12:00am 20.0 20.4 16.4 80 2.2 ENE 9 17 5 9 1017.8 1015.5 8.8
 
Date/Time
EST
Temp
°C
App
Temp
°C
Dew
Point
°C
Rel
Hum
%
Delta-T
°C
Wind Press
QNH
hPa
Press
MSL
hPa
Rain since
9am
mm
Dir  Spd
km/h
Gust
km/h
Spd
kts
Gust
kts
03/11:30pm 20.2 21.0 16.4 79 2.3 ENE 7 11 4 6 1018.4 1016.1 8.8
03/11:00pm 20.3 20.7 16.3 78 2.4 NNE 9 15 5 8 1018.1 1015.8 8.8
03/10:30pm 20.3 21.2 16.5 79 2.3 ENE 7 13 4 7 1018.4 1016.1 8.8
03/10:00pm 20.4 21.2 17.2 82 2.0 ENE 9 17 5 9 1018.8 1016.5 8.8
03/09:30pm 20.2 20.7 18.3 89 1.2 E 13 20 7 11 1018.6 1016.3 8.8
03/09:00pm 20.3 20.7 18.1 87 1.4 ENE 13 24 7 13 1018.4 1016.1 8.8
03/08:30pm 20.2 20.2 18.1 88 1.3 ENE 15 32 8 17 1017.3 1015.0 8.8
03/08:00pm 20.6 20.1 18.7 89 1.2 E 19 33 10 18 1017.0 1014.7 8.8
03/07:30pm 22.2 21.7 19.2 83 1.9 ENE 20 37 11 20 1016.2 1013.9 8.8
03/07:00pm 24.0 23.2 19.3 75 3.1 NE 22 41 12 22 1014.6 1012.2 8.8
03/06:53pm 25.9 25.3 19.8 69 4.0 N 22 41 12 22 1014.2 1011.8 6.0
03/06:49pm 29.7 29.3 19.4 54 6.8 N 20 28 11 15 1013.8 1011.5 0.0
03/06:30pm 31.8 30.4 16.9 40 9.6 N 20 33 11 18 1011.8 1009.4 0.0
03/06:00pm 32.4 30.4 15.4 36 10.7 N 20 33 11 18 1010.4 1008.0 0.0
03/05:30pm 33.7 30.6 15.7 34 11.5 NNE 26 39 14 21 1010.4 1008.0 0.0
03/05:00pm 35.2 31.7 12.2 25 14.0 N 22 35 12 19 1010.7 1008.4 0.0
03/04:30pm 35.4 32.0 12.4 25 14.0 N 22 33 12 18 1010.8 1008.5 0.0
03/04:00pm 36.3 32.5 12.5 24 14.6 N 24 35 13 19 1010.8 1008.5 0.0
03/03:30pm 36.3 32.9 12.5 24 14.6 N 22 32 12 17 1011.1 1008.8 0.0
03/03:00pm 36.5 32.8 12.7 24 14.7 N 24 39 13 21 1011.8 1009.4 0.0
03/02:30pm 36.2 33.0 13.0 24 14.3 NNE 22 37 12 20 1012.5 1010.1 0.0
03/02:00pm 36.4 34.4 13.8 26 14.1 N 17 32 9 17 1013.0 1010.7 0.0
03/01:30pm 35.3 32.4 12.3 25 14.0 N 19 30 10 16 1013.5 1011.2 0.0
03/01:00pm 35.7 32.3 12.6 25 14.2 N 22 35 12 19 1014.2 1011.8 0.0
03/12:30pm 36.5 33.1 11.3 22 15.2 N 20 32 11 17 1014.6 1012.2 0.0
03/12:00pm 36.0 32.9 11.6 23 14.8 NNW 19 33 10 18 1014.8 1012.5 0.0
03/11:30am 34.3 32.8 15.2 31 12.1 N 17 28 9 15 1015.0 1012.7 0.0
03/11:00am 32.9 33.0 17.5 39 10.0 N 13 20 7 11 1015.6 1013.3 0.0
03/10:30am 31.0 31.2 17.7 45 8.6 NNW 13 20 7 11 1015.9 1013.6 0.0
03/10:00am 29.4 30.6 18.2 51 7.3 N 9 17 5 9 1016.4 1014.0 0.0
03/09:30am 28.7 29.4 18.8 55 6.5 N 13 19 7 10 1016.8 1014.5 0.0
03/09:00am 27.0 27.7 18.8 60 5.3 N 13 20 7 11 1016.9 1014.6 0.0
03/08:30am 25.2 26.0 19.1 69 4.0 N 13 22 7 12 1017.2 1014.9 0.0
03/08:25am 25.6 26.6 19.5 69 4.0 N 13 20 7 11 1017.2 1014.9 0.0
03/08:00am 24.1 24.6 19.2 74 3.2 NNW 15 19 8 10 1017.1 1014.8 0.0
03/07:30am 23.3 23.6 19.7 80 2.4 NNW 17 20 9 11 1017.1 1014.8 0.0
03/07:00am 22.6 24.0 19.6 83 1.9 NNE 11 19 6 10 1016.8 1014.5 0.0
03/06:30am 22.2 23.2 19.4 84 1.8 N 13 19 7 10 1016.5 1014.1 0.0
03/06:00am 22.1 23.9 19.5 85 1.7 NNE 9 13 5 7 1016.0 1013.7 0.0
03/05:30am 21.7 24.1 19.6 88 1.4 ENE 6 9 3 5 1015.6 1013.3 0.0
03/05:00am 21.6 23.8 19.7 89 1.2 NE 7 11 4 6 1015.0 1012.7 0.0
03/04:30am 21.7 23.2 19.8 89 1.2 NNE 11 15 6 8 1014.4 1012.0 0.0
03/04:00am 21.8 24.0 19.7 88 1.4 NNE 7 9 4 5 1014.4 1012.0 0.0
03/03:30am 21.8 23.8 19.9 89 1.2 NNE 9 13 5 7 1014.2 1011.8 0.0
03/03:00am 21.8 23.5 20.1 90 1.1 NNE 11 17 6 9 1014.1 1011.7 0.0
03/02:30am 21.9 24.0 20.2 90 1.1 NNE 9 13 5 7 1014.1 1011.7 0.0
03/02:00am 22.0 24.2 20.5 91 1.0 NNE 9 17 5 9 1014.1 1011.7 0.0
03/01:30am 22.0 24.2 20.5 91 1.0 NE 9 15 5 8 1014.0 1011.6 0.0
03/01:01am 21.9 24.4 20.2 90 1.1 ENE 7 13 4 7 1014.0 1011.6 0.0
03/01:00am 21.9 24.4 20.2 90 1.1 ENE 7 13 4 7 1014.0 1011.6 0.0
03/12:30am 22.1 24.5 20.0 88 1.4 ENE 7 11 4 6 1014.3 1011.9 0.0
03/12:00am 22.4 24.9 19.8 85 1.7 NE 6 9 3 5 1014.7 1012.4 0.0
 
Date/Time
EST
Temp
°C
App
Temp
°C
Dew
Point
°C
Rel
Hum
%
Delta-T
°C
Wind Press
QNH
hPa
Press
MSL
hPa
Rain since
9am
mm
Dir  Spd
km/h
Gust
km/h
Spd
kts
Gust
kts
02/11:30pm 23.1 25.5 20.1 83 2.0 ENE 7 11 4 6 1014.9 1012.6 0.0
02/11:00pm 23.6 26.1 19.9 80 2.4 NE 6 9 3 5 1015.0 1012.7 0.0
02/10:30pm 24.4 26.8 20.1 77 2.8 ENE 7 11 4 6 1014.9 1012.6 0.0
02/10:00pm 25.3 27.7 20.1 73 3.4 ENE 7 11 4 6 1014.8 1012.5 0.0
02/09:30pm 26.0 28.7 20.3 71 3.8 ENE 6 9 3 5 1014.4 1012.0 0.0
02/09:00pm 26.9 29.1 20.3 67 4.4 NNE 9 15 5 8 1014.0 1011.6 0.0
02/08:30pm 27.4 29.4 20.0 64 4.9 NNE 9 17 5 9 1013.6 1011.3 0.0
02/08:00pm 28.1 29.9 19.6 60 5.6 NE 9 15 5 8 1013.3 1011.0 0.0
02/07:30pm 29.2 30.3 18.9 53 6.8 NE 11 20 6 11 1013.0 1010.7 0.0
02/07:00pm 30.4 30.7 17.8 46 8.2 NE 13 26 7 14 1012.4 1010.0 0.0
02/06:30pm 31.3 30.9 15.3 38 10.0 NE 11 19 6 10 1011.9 1009.5 0.0
02/06:00pm 34.0 31.7 5.5 17 15.6 ESE 7 9 4 5 1011.3 1009.0 0.0
02/05:30pm 34.8 31.6 5.3 16 16.1 SSE 11 15 6 8 1010.9 1008.6 0.0
02/05:00pm 35.6 31.8 4.0 14 17.0 SE 13 20 7 11 1010.6 1008.3 0.0
02/04:30pm 37.6 32.9 3.4 12 18.4 S 17 24 9 13 1010.4 1008.0 0.0
02/04:00pm 37.3 31.8 1.9 11 18.6 SSE 20 30 11 16 1010.3 1007.9 0.0
02/03:30pm 37.7 30.5 0.9 10 19.1 S 28 35 15 19 1010.3 1007.9 0.0
02/03:00pm 38.0 32.7 -0.3 9 19.6 SSE 17 37 9 20 1010.2 1007.8 0.0
02/02:59pm 38.3 33.5 -0.1 9 19.7 SE 15 35 8 19 1010.2 1007.8 0.0
02/02:30pm 37.9 35.5 8.6 17 17.1 W 11 17 6 9 1010.4 1008.0 0.0
02/02:00pm 37.3 34.2 9.0 18 16.6 SW 15 24 8 13 1010.7 1008.4 0.0
02/01:30pm 36.3 34.4 10.5 21 15.4 SE 11 20 6 11 1011.1 1008.8 0.0
02/01:00pm 36.1 33.4 10.3 21 15.3 SE 15 22 8 12 1011.6 1009.2 0.0
02/12:30pm 35.4 33.5 11.7 23 14.3 NNW 13 22 7 12 1011.9 1009.5 0.0

Other Formats:

Comma delimited format used in spreadsheet applications
http://www.bom.gov.au/fwo/IDQ60801/IDQ60801.94549.axf

JavaScript Object Notation format (JSON) in row-major order
http://www.bom.gov.au/fwo/IDQ60801/IDQ60801.94549.json